Time;durP1;ratioP1;P1;durP2;ratioP2;P2;SDS_P1;SDS_P2;PMS_P1;PMS_P2;Temp;Humidity;BMP_temperature;BMP_pressure;BME280_temperature;BME280_humidity;BME280_pressure;Samples;Min_cycle;Max_cycle;Signal;HPM_P1;HPM_P2
2023/04/06 00:06:12;;;;;;;12.75;5.22;;;0.70;99.90;;;;;;20738332;28;20033;-77
2023/04/06 00:16:12;;;;;;;13.48;5.40;;;0.40;99.90;;;;;;20745686;28;20080;-76
2023/04/06 00:26:13;;;;;;;9.27;5.40;;;0.30;99.90;;;;;;20745633;28;20049;-76
2023/04/06 00:36:19;;;;;;;9.13;5.65;;;0.10;99.90;;;;;;20777417;28;20511;-76
2023/04/06 00:46:20;;;;;;;10.45;5.05;;;0.00;99.90;;;;;;20725826;28;20167;-76
2023/04/06 00:56:23;;;;;;;9.23;4.88;;;-0.10;99.90;;;;;;20771095;28;20678;-77
2023/04/06 01:06:27;;;;;;;10.15;5.32;;;-0.30;99.90;;;;;;20773301;28;20085;-75
2023/04/06 01:16:36;;;;;;;8.43;4.13;;;-0.30;99.90;;;;;;20723473;28;20068;-76
2023/04/06 01:26:45;;;;;;;8.20;3.42;;;-0.30;99.90;;;;;;20731424;28;20030;-76
2023/04/06 01:36:46;;;;;;;6.22;3.60;;;-0.60;99.90;;;;;;20758191;28;20026;-76
2023/04/06 01:47:03;;;;;;;8.95;3.75;;;-0.50;99.90;;;;;;20730569;28;20116;-76
2023/04/06 01:57:04;;;;;;;6.30;3.20;;;-0.70;99.90;;;;;;20779896;28;20123;-75
2023/04/06 02:07:17;;;;;;;6.65;3.70;;;-1.00;99.90;;;;;;20768098;28;20526;-76
2023/04/06 02:17:18;;;;;;;4.40;3.03;;;-0.80;99.90;;;;;;20786180;28;20089;-75
2023/04/06 02:27:19;;;;;;;6.05;3.45;;;-0.60;99.90;;;;;;20752821;28;20026;-76
2023/04/06 02:37:23;;;;;;;7.30;3.55;;;-0.40;99.90;;;;;;20764705;23;20038;-79
2023/04/06 02:47:24;;;;;;;7.13;2.92;;;-0.10;99.90;;;;;;20684756;28;20056;-80
2023/04/06 02:57:26;;;;;;;5.43;3.30;;;-0.10;99.90;;;;;;20688589;28;20026;-80
2023/04/06 03:07:27;;;;;;;6.53;3.42;;;0.10;99.90;;;;;;20706672;28;20034;-80
2023/04/06 03:17:28;;;;;;;12.40;3.63;;;0.00;99.90;;;;;;20685150;28;20034;-78
2023/04/06 03:27:34;;;;;;;6.43;3.15;;;0.00;99.90;;;;;;20673751;28;20094;-80
2023/04/06 03:37:36;;;;;;;10.63;4.47;;;-0.20;99.90;;;;;;20651673;28;20459;-80
2023/04/06 03:47:39;;;;;;;13.63;6.10;;;-0.40;99.90;;;;;;20598922;28;20038;-80
2023/04/06 03:57:42;;;;;;;11.13;6.63;;;-0.40;99.90;;;;;;20615531;28;20590;-79
2023/04/06 04:07:43;;;;;;;12.93;6.70;;;-0.40;99.90;;;;;;20664673;28;20181;-80
2023/04/06 04:17:48;;;;;;;11.38;6.53;;;-0.30;99.90;;;;;;20681992;28;20046;-80
2023/04/06 04:27:50;;;;;;;12.25;5.85;;;-0.30;99.90;;;;;;20667850;28;20031;-80
2023/04/06 04:37:52;;;;;;;8.27;4.20;;;-0.20;99.90;;;;;;20691118;28;20053;-80
2023/04/06 04:47:53;;;;;;;9.60;4.18;;;-0.20;99.90;;;;;;20691131;28;20398;-80
2023/04/06 04:57:58;;;;;;;6.85;3.63;;;-0.20;99.90;;;;;;20686624;28;20065;-80
2023/04/06 05:08:17;;;;;;;8.23;4.05;;;-0.20;99.90;;;;;;20688362;28;20030;-81
2023/04/06 05:18:21;;;;;;;8.93;4.18;;;-0.60;99.90;;;;;;20659107;28;20526;-80
2023/04/06 05:28:22;;;;;;;7.93;4.03;;;-0.20;99.90;;;;;;20653860;28;20054;-79
2023/04/06 05:38:23;;;;;;;14.10;5.10;;;-0.30;99.90;;;;;;20634731;28;20037;-80
2023/04/06 05:48:26;;;;;;;6.20;4.00;;;-0.60;99.90;;;;;;20562936;28;20090;-77
2023/04/06 05:58:27;;;;;;;10.13;5.78;;;0.10;99.90;;;;;;20595612;28;20033;-81
2023/04/06 06:08:30;;;;;;;10.63;5.22;;;0.60;99.90;;;;;;20639588;28;20038;-78
2023/04/06 06:18:33;;;;;;;14.48;6.35;;;1.00;99.90;;;;;;20688259;28;20026;-79
2023/04/06 06:28:34;;;;;;;11.23;6.13;;;1.70;99.90;;;;;;20687821;28;20039;-79
2023/04/06 06:38:35;;;;;;;12.27;6.68;;;2.10;99.90;;;;;;20649520;28;20054;-78
2023/04/06 06:48:36;;;;;;;11.48;5.90;;;2.80;99.90;;;;;;20677387;28;20026;-78
2023/04/06 06:58:37;;;;;;;9.80;6.00;;;3.50;99.90;;;;;;20672352;28;20636;-79
2023/04/06 07:08:38;;;;;;;12.63;6.43;;;4.30;99.90;;;;;;20670022;28;20443;-79
2023/04/06 07:18:39;;;;;;;;;;;5.00;99.90;;;;;;20672012;28;20048;-79
2023/04/06 07:28:41;;;;;;;13.93;6.35;;;5.50;99.90;;;;;;20696564;28;19910;-80
2023/04/06 07:38:42;;;;;;;61.80;32.97;;;6.30;99.90;;;;;;20694491;28;20080;-80
2023/04/06 07:48:43;;;;;;;15.30;8.90;;;7.00;99.90;;;;;;20678307;28;20030;-79
2023/04/06 07:58:44;;;;;;;12.30;6.23;;;8.20;99.90;;;;;;20680190;28;20553;-79
2023/04/06 08:08:45;;;;;;;10.63;5.68;;;8.70;99.90;;;;;;20648926;28;20364;-78
2023/04/06 08:18:46;;;;;;;13.07;6.00;;;9.90;99.90;;;;;;20730973;28;20034;-78
2023/04/06 08:28:47;;;;;;;9.63;6.40;;;9.70;99.90;;;;;;20590573;28;20031;-80
2023/04/06 08:38:49;;;;;;;9.73;6.47;;;9.90;99.90;;;;;;20595717;28;20189;-81
2023/04/06 08:48:50;;;;;;;14.05;6.40;;;10.40;99.90;;;;;;20592503;28;20399;-81
2023/04/06 08:58:52;;;;;;;9.88;5.90;;;11.00;99.90;;;;;;20557003;28;20038;-82
2023/04/06 09:08:54;;;;;;;8.27;5.45;;;11.90;99.90;;;;;;20641197;28;20031;-79
2023/04/06 09:19:04;;;;;;;11.48;5.72;;;11.80;99.50;;;;;;20670287;28;20033;-80
2023/04/06 09:29:06;;;;;;;8.98;4.35;;;11.40;98.20;;;;;;20672332;28;20644;-81
2023/04/06 09:39:07;;;;;;;10.40;5.38;;;11.70;95.80;;;;;;20671886;28;20065;-81
2023/04/06 09:49:10;;;;;;;14.18;5.50;;;11.10;97.40;;;;;;20662357;28;20108;-80
2023/04/06 09:59:19;;;;;;;7.82;4.70;;;11.80;97.80;;;;;;20670488;28;20376;-80
2023/04/06 10:09:25;;;;;;;9.63;5.00;;;11.70;96.70;;;;;;20686140;28;20030;-80
2023/04/06 10:19:33;;;;;;;8.25;3.95;;;12.00;94.90;;;;;;20685647;28;20037;-81
2023/04/06 10:29:45;;;;;;;9.13;3.80;;;11.80;93.80;;;;;;20685186;28;20030;-80
2023/04/06 10:39:57;;;;;;;8.30;3.83;;;13.00;93.90;;;;;;20680772;28;20034;-80
2023/04/06 10:49:58;;;;;;;11.85;3.78;;;13.70;92.50;;;;;;20682129;28;20092;-82
2023/04/06 10:59:58;;;;;;;7.83;3.33;;;13.80;89.40;;;;;;20680050;28;20113;-82
2023/04/06 11:09:59;;;;;;;7.37;3.57;;;14.90;90.20;;;;;;20636932;28;20039;-81
2023/04/06 11:20:00;;;;;;;9.40;3.67;;;13.90;88.30;;;;;;20604275;28;20039;-80
2023/04/06 11:30:02;;;;;;;5.80;3.00;;;12.70;89.60;;;;;;20665803;28;20038;-79
2023/04/06 11:40:07;;;;;;;5.75;2.85;;;13.50;84.40;;;;;;20677724;28;20090;-81
2023/04/06 11:50:11;;;;;;;6.18;3.30;;;13.00;83.00;;;;;;20662614;28;20495;-81
2023/04/06 12:00:12;;;;;;;8.40;3.55;;;13.00;84.00;;;;;;20662590;28;20066;-82
2023/04/06 12:10:13;;;;;;;7.88;3.63;;;13.00;84.20;;;;;;20677911;28;20038;-79
2023/04/06 12:20:14;;;;;;;6.80;3.67;;;13.00;86.90;;;;;;20677672;28;20484;-78
2023/04/06 12:30:15;;;;;;;7.10;3.50;;;13.50;84.80;;;;;;20679986;28;20316;-79
2023/04/06 12:40:16;;;;;;;7.10;3.30;;;13.30;83.90;;;;;;20678907;28;20038;-80
2023/04/06 12:50:17;;;;;;;7.20;3.53;;;13.70;85.30;;;;;;20685392;28;20105;-79
2023/04/06 13:00:19;;;;;;;9.63;4.27;;;13.60;82.60;;;;;;20717319;28;20499;-79
2023/04/06 13:10:20;;;;;;;;;;;13.40;86.90;;;;;;20712422;28;20618;-79
2023/04/06 13:20:24;;;;;;;6.32;2.97;;;13.80;87.40;;;;;;20709638;28;20271;-83
2023/04/06 13:30:25;;;;;;;5.10;3.00;;;14.50;88.70;;;;;;20666257;28;20034;-82
2023/04/06 13:40:26;;;;;;;6.97;2.73;;;13.90;84.80;;;;;;20656893;28;20538;-84
2023/04/06 13:50:27;;;;;;;4.73;2.60;;;13.30;85.70;;;;;;20682883;28;20026;-81
2023/04/06 14:00:28;;;;;;;8.53;2.67;;;13.30;86.60;;;;;;20670051;28;20545;-82
2023/04/06 14:10:29;;;;;;;5.43;2.77;;;13.10;86.30;;;;;;20702717;28;20496;-82
2023/04/06 14:20:33;;;;;;;6.43;2.87;;;13.70;87.00;;;;;;20673722;28;20033;-80
2023/04/06 14:30:34;;;;;;;9.02;2.90;;;13.30;86.30;;;;;;20668007;28;20117;-80
2023/04/06 14:40:36;;;;;;;8.27;3.67;;;13.30;85.10;;;;;;20687752;28;20031;-78
2023/04/06 14:50:37;;;;;;;9.27;3.38;;;13.10;85.30;;;;;;20677492;28;20026;-77
2023/04/06 15:00:38;;;;;;;8.10;3.70;;;13.20;84.30;;;;;;20674719;28;20049;-79
2023/04/06 15:10:39;;;;;;;7.40;3.90;;;13.00;85.30;;;;;;20668738;28;20269;-78
2023/04/06 15:20:40;;;;;;;8.90;4.07;;;12.90;85.20;;;;;;20687034;28;20049;-77
2023/04/06 15:30:41;;;;;;;7.97;3.77;;;12.60;85.60;;;;;;20687571;28;20509;-78
2023/04/06 15:40:44;;;;;;;9.83;3.90;;;12.80;86.70;;;;;;20610854;28;20806;-78
2023/04/06 15:50:45;;;;;;;9.63;4.60;;;12.40;88.60;;;;;;20658401;28;20034;-79
2023/04/06 16:00:46;;;;;;;14.47;5.37;;;12.30;89.70;;;;;;20679448;28;20026;-81
2023/04/06 16:10:47;;;;;;;10.90;5.00;;;12.50;88.80;;;;;;20668088;28;20026;-79
2023/04/06 16:20:49;;;;;;;10.53;4.13;;;12.50;89.90;;;;;;20675979;28;20023;-80
2023/04/06 16:30:50;;;;;;;12.13;5.32;;;12.40;89.40;;;;;;20674863;28;20049;-78
2023/04/06 16:41:01;;;;;;;16.00;7.13;;;12.40;90.40;;;;;;20678441;28;20034;-79
2023/04/06 16:51:05;;;;;;;8.57;4.40;;;12.40;91.20;;;;;;20678374;28;20037;-78
2023/04/06 17:01:06;;;;;;;9.63;4.20;;;12.00;91.10;;;;;;20677341;28;20034;-79
2023/04/06 17:11:08;;;;;;;5.37;3.17;;;11.90;91.70;;;;;;20673516;28;20097;-78
2023/04/06 17:21:10;;;;;;;;;;;11.80;91.70;;;;;;20722328;28;20042;-79
2023/04/06 17:31:11;;;;;;;7.95;3.08;;;11.90;91.70;;;;;;20692315;28;19941;-78
2023/04/06 17:41:13;;;;;;;6.27;3.43;;;11.60;92.30;;;;;;20683894;28;20031;-77
2023/04/06 17:51:17;;;;;;;9.35;3.60;;;11.40;92.70;;;;;;20676007;28;20038;-78
2023/04/06 18:01:18;;;;;;;6.43;3.38;;;11.00;93.50;;;;;;20669504;28;20649;-78
2023/04/06 18:11:24;;;;;;;11.23;4.07;;;10.90;93.80;;;;;;20656551;28;20507;-81
2023/04/06 18:21:26;;;;;;;6.18;3.72;;;10.70;94.90;;;;;;20688268;28;20034;-82
2023/04/06 18:31:27;;;;;;;6.50;3.65;;;10.60;95.10;;;;;;20701818;28;20483;-81
2023/04/06 18:41:27;;;;;;;9.30;4.47;;;10.60;95.50;;;;;;20685893;28;20594;-82
2023/04/06 18:51:30;;;;;;;8.33;4.67;;;10.50;96.30;;;;;;20700228;28;20451;-82
2023/04/06 19:01:32;;;;;;;7.68;4.53;;;10.00;98.90;;;;;;20689233;28;20034;-80
2023/04/06 19:11:32;;;;;;;;;;;9.80;99.90;;;;;;20626791;28;20031;-80
2023/04/06 19:21:33;;;;;;;7.18;4.22;;;9.30;99.90;;;;;;20593115;28;19920;-80
2023/04/06 19:31:35;;;;;;;8.50;4.13;;;9.60;99.90;;;;;;20615849;28;20097;-80
2023/04/06 19:41:37;;;;;;;;;;;10.00;99.90;;;;;;20619349;28;20039;-79
2023/04/06 19:51:38;;;;;;;5.70;3.33;;;9.70;99.90;;;;;;20613170;28;19916;-82
2023/04/06 20:01:38;;;;;;;7.37;3.13;;;9.60;99.90;;;;;;20585974;28;20043;-81
2023/04/06 20:11:39;;;;;;;4.30;2.60;;;9.40;99.90;;;;;;20661485;28;20053;-80
2023/04/06 20:21:42;;;;;;;5.30;2.73;;;9.50;99.90;;;;;;20695208;28;20483;-80
2023/04/06 20:31:43;;;;;;;6.93;2.55;;;9.60;99.90;;;;;;20687749;28;20288;-80
2023/04/06 20:41:44;;;;;;;4.87;1.93;;;9.60;99.90;;;;;;20636925;28;20053;-81
2023/04/06 20:51:45;;;;;;;4.53;2.10;;;9.60;99.90;;;;;;20639039;28;20486;-81
2023/04/06 21:01:46;;;;;;;3.93;1.70;;;9.30;99.90;;;;;;20671775;28;20026;-82
2023/04/06 21:11:47;;;;;;;2.80;1.77;;;9.20;99.90;;;;;;20672431;28;20060;-83
2023/04/06 21:21:48;;;;;;;;;;;9.20;99.90;;;;;;20661667;28;20034;-82
2023/04/06 21:31:49;;;;;;;4.97;2.57;;;9.20;99.90;;;;;;20653290;28;19933;-81
2023/04/06 21:41:50;;;;;;;8.73;4.47;;;9.30;99.90;;;;;;20689934;28;20026;-81
2023/04/06 21:51:51;;;;;;;5.18;3.10;;;9.10;99.90;;;;;;20646581;28;20534;-82
2023/04/06 22:01:51;;;;;;;8.07;4.27;;;9.10;99.90;;;;;;20687333;28;20388;-83
2023/04/06 22:11:52;;;;;;;9.40;3.97;;;9.00;99.90;;;;;;20665109;28;20495;-80
2023/04/06 22:21:53;;;;;;;6.40;3.30;;;8.70;99.90;;;;;;20662353;28;20031;-81
2023/04/06 22:31:55;;;;;;;10.10;2.27;;;8.80;99.90;;;;;;20699886;28;20085;-83
2023/04/06 22:41:55;;;;;;;6.57;1.80;;;8.80;99.90;;;;;;20679815;28;20056;-83
2023/04/06 22:51:56;;;;;;;3.90;1.70;;;8.60;99.90;;;;;;20666786;28;20038;-80
2023/04/06 23:01:57;;;;;;;3.27;2.07;;;8.50;99.90;;;;;;20665314;28;20053;-82
2023/04/06 23:11:58;;;;;;;6.43;2.20;;;8.30;99.90;;;;;;20684863;28;20403;-81
2023/04/06 23:21:59;;;;;;;3.47;2.13;;;8.20;99.90;;;;;;20667909;28;20057;-81
2023/04/06 23:32:00;;;;;;;3.70;2.22;;;8.30;99.90;;;;;;20667271;28;20040;-79
2023/04/06 23:42:01;;;;;;;4.83;1.90;;;8.20;99.90;;;;;;20669247;28;20030;-81
2023/04/06 23:52:02;;;;;;;3.07;2.13;;;8.00;99.90;;;;;;20682894;28;20109;-81
